createdAt,value
2018-11-29T00:00:47.616Z,940.77
2018-11-29T00:01:47.615Z,940.80
2018-11-29T00:02:47.599Z,940.82
2018-11-29T00:03:47.583Z,940.74
2018-11-29T00:04:47.593Z,940.75
2018-11-29T00:05:47.567Z,940.75
2018-11-29T00:06:47.562Z,940.75
2018-11-29T00:07:47.539Z,940.83
2018-11-29T00:08:47.526Z,940.77
2018-11-29T00:09:47.537Z,940.83
2018-11-29T00:10:47.504Z,940.85
2018-11-29T00:11:47.494Z,940.83
2018-11-29T00:12:47.482Z,940.85
2018-11-29T00:13:47.473Z,940.84
2018-11-29T00:14:47.486Z,940.85
2018-11-29T00:15:47.480Z,940.81
2018-11-29T00:16:47.441Z,940.84
2018-11-29T00:17:47.435Z,940.86
2018-11-29T00:18:47.420Z,940.82
2018-11-29T00:19:47.421Z,940.81
2018-11-29T00:20:47.398Z,940.82
2018-11-29T00:21:47.390Z,940.86
2018-11-29T00:22:47.374Z,940.87
2018-11-29T00:23:47.374Z,940.85
2018-11-29T00:24:47.392Z,940.86
2018-11-29T00:25:47.347Z,940.88
2018-11-29T00:26:47.381Z,940.84
2018-11-29T00:27:47.328Z,940.79
2018-11-29T00:28:47.313Z,940.84
2018-11-29T00:29:47.314Z,940.89
2018-11-29T00:30:47.298Z,940.91
2018-11-29T00:31:47.277Z,940.89
2018-11-29T00:32:47.263Z,940.85
2018-11-29T00:33:47.265Z,940.86
2018-11-29T00:34:47.261Z,940.85
2018-11-29T00:35:47.235Z,940.89
2018-11-29T00:36:47.224Z,940.91
2018-11-29T00:37:47.215Z,940.94
2018-11-29T00:38:47.206Z,940.90
2018-11-29T00:39:47.204Z,940.91
2018-11-29T00:40:47.183Z,940.85
2018-11-29T00:41:47.167Z,940.83
2018-11-29T00:42:47.152Z,940.83
2018-11-29T00:43:47.143Z,940.79
2018-11-29T00:44:47.149Z,940.73
2018-11-29T00:45:47.126Z,940.73
2018-11-29T00:46:47.114Z,940.74
2018-11-29T00:47:47.107Z,940.76
2018-11-29T00:48:47.090Z,940.76
2018-11-29T00:49:47.097Z,940.80
2018-11-29T00:50:47.066Z,940.76
2018-11-29T00:51:47.061Z,940.74
2018-11-29T00:52:47.043Z,940.75
2018-11-29T00:53:47.038Z,940.76
2018-11-29T00:54:47.048Z,940.76
2018-11-29T00:55:47.011Z,940.75
2018-11-29T00:56:47.001Z,940.77
2018-11-29T00:57:46.993Z,940.76
2018-11-29T00:58:46.981Z,940.74
2018-11-29T00:59:46.969Z,940.71
2018-11-29T01:00:46.970Z,940.70
2018-11-29T01:01:46.950Z,940.73
2018-11-29T01:02:46.941Z,940.78
2018-11-29T01:03:46.930Z,940.84
2018-11-29T01:04:46.925Z,940.86
2018-11-29T01:05:46.917Z,940.83
2018-11-29T01:06:46.900Z,940.81
2018-11-29T01:07:46.879Z,940.76
2018-11-29T01:08:46.875Z,940.78
2018-11-29T01:09:46.869Z,940.72
2018-11-29T01:10:46.869Z,940.79
2018-11-29T01:11:46.837Z,940.76
2018-11-29T01:12:46.824Z,940.83
2018-11-29T01:13:46.814Z,940.85
2018-11-29T01:14:46.805Z,940.82
2018-11-29T01:15:46.805Z,940.82
2018-11-29T01:16:46.782Z,940.81
2018-11-29T01:17:46.771Z,940.75
2018-11-29T01:18:46.765Z,940.76
2018-11-29T01:19:46.757Z,940.69
2018-11-29T01:20:46.758Z,940.65
2018-11-29T01:21:46.727Z,940.64
2018-11-29T01:22:46.723Z,940.63
2018-11-29T01:23:46.704Z,940.63
2018-11-29T01:24:46.705Z,940.66
2018-11-29T01:25:46.697Z,940.71
2018-11-29T01:26:46.676Z,940.73
2018-11-29T01:27:46.666Z,940.73
2018-11-29T01:28:46.650Z,940.73
2018-11-29T01:29:46.641Z,940.75
2018-11-29T01:30:46.645Z,940.70
2018-11-29T01:31:46.619Z,940.72
2018-11-29T01:32:46.609Z,940.73
2018-11-29T01:33:46.594Z,940.67
2018-11-29T01:34:46.585Z,940.64
2018-11-29T01:35:46.589Z,940.66
2018-11-29T01:36:46.560Z,940.67
2018-11-29T01:37:46.558Z,940.73
2018-11-29T01:38:46.556Z,940.68
2018-11-29T01:39:46.532Z,940.72
2018-11-29T01:40:46.537Z,940.65
2018-11-29T01:41:46.508Z,940.61
2018-11-29T01:42:46.525Z,940.66
2018-11-29T01:43:46.484Z,940.68
2018-11-29T01:44:46.475Z,940.67
2018-11-29T01:45:46.476Z,940.67
2018-11-29T01:46:46.452Z,940.61
2018-11-29T01:47:46.447Z,940.62
2018-11-29T01:48:46.439Z,940.63
2018-11-29T01:49:46.421Z,940.58
2018-11-29T01:50:46.425Z,940.59
2018-11-29T01:51:46.408Z,940.55
2018-11-29T01:52:46.385Z,940.56
2018-11-29T01:53:46.377Z,940.53
2018-11-29T01:54:46.366Z,940.51
2018-11-29T01:55:46.367Z,940.49
2018-11-29T01:56:46.342Z,940.51
2018-11-29T01:57:46.338Z,940.51
2018-11-29T01:58:46.319Z,940.49
2018-11-29T01:59:46.309Z,940.54
2018-11-29T02:00:46.319Z,940.50
2018-11-29T02:01:46.286Z,940.54
2018-11-29T02:02:46.277Z,940.53
2018-11-29T02:03:46.275Z,940.48
2018-11-29T02:04:46.253Z,940.48
2018-11-29T02:05:46.259Z,940.50
2018-11-29T02:06:46.232Z,940.51
2018-11-29T02:07:46.227Z,940.50
2018-11-29T02:08:46.210Z,940.52
2018-11-29T02:09:46.208Z,940.53
2018-11-29T02:10:46.211Z,940.47
2018-11-29T02:11:46.185Z,940.47
2018-11-29T02:12:46.168Z,940.44
2018-11-29T02:13:46.154Z,940.44
2018-11-29T02:14:46.145Z,940.42
2018-11-29T02:15:46.172Z,940.40
2018-11-29T02:16:46.130Z,940.41
2018-11-29T02:17:46.117Z,940.42
2018-11-29T02:18:46.106Z,940.44
2018-11-29T02:19:46.095Z,940.40
2018-11-29T02:20:46.085Z,940.39
2018-11-29T02:21:46.134Z,940.37
2018-11-29T02:22:46.058Z,940.35
2018-11-29T02:23:46.045Z,940.34
2018-11-29T02:24:46.043Z,940.35
2018-11-29T02:25:46.028Z,940.35
2018-11-29T02:26:46.030Z,940.34
2018-11-29T02:27:46.002Z,940.28
2018-11-29T02:28:45.991Z,940.29
2018-11-29T02:29:45.986Z,940.27
2018-11-29T02:30:45.974Z,940.24
2018-11-29T02:31:45.973Z,940.21
2018-11-29T02:32:45.953Z,940.18
2018-11-29T02:33:45.936Z,940.11
2018-11-29T02:34:45.925Z,940.09
2018-11-29T02:35:45.914Z,940.13
2018-11-29T02:36:45.917Z,940.12
2018-11-29T02:37:45.893Z,940.10
2018-11-29T02:38:45.899Z,940.09
2018-11-29T02:39:45.871Z,940.12
2018-11-29T02:40:45.865Z,940.01
2018-11-29T02:41:45.866Z,940.00
2018-11-29T02:42:45.848Z,939.98
2018-11-29T02:43:45.827Z,939.94
2018-11-29T02:44:45.816Z,939.91
2018-11-29T02:45:45.806Z,939.90
2018-11-29T02:46:45.808Z,939.87
2018-11-29T02:47:45.788Z,939.85
2018-11-29T02:48:45.770Z,939.85
2018-11-29T02:49:45.764Z,939.82
2018-11-29T02:50:45.751Z,939.84
2018-11-29T02:51:45.758Z,939.85
2018-11-29T02:52:45.769Z,939.87
2018-11-29T02:53:45.716Z,939.84
2018-11-29T02:54:45.711Z,939.83
2018-11-29T02:55:45.697Z,939.82
2018-11-29T02:56:45.703Z,939.83
2018-11-29T02:57:45.673Z,939.84
2018-11-29T02:58:45.662Z,939.84
2018-11-29T02:59:45.659Z,939.88
2018-11-29T03:00:45.647Z,939.81
2018-11-29T03:01:45.648Z,939.81
2018-11-29T03:02:45.618Z,939.83
2018-11-29T03:03:45.605Z,939.83
2018-11-29T03:04:45.609Z,939.90
2018-11-29T03:05:45.592Z,939.90
2018-11-29T03:06:45.589Z,939.90
2018-11-29T03:07:45.562Z,939.91
2018-11-29T03:08:45.552Z,939.91
2018-11-29T03:09:45.548Z,939.89
2018-11-29T03:10:45.531Z,939.89
2018-11-29T03:11:45.542Z,939.82
2018-11-29T03:12:45.514Z,939.84
2018-11-29T03:13:45.502Z,939.87
2018-11-29T03:14:45.506Z,939.83
2018-11-29T03:15:45.476Z,939.81
2018-11-29T03:16:45.504Z,939.85
2018-11-29T03:17:45.460Z,939.87
2018-11-29T03:18:45.444Z,939.87
2018-11-29T03:19:45.437Z,939.90
2018-11-29T03:20:45.422Z,939.91
2018-11-29T03:21:45.420Z,939.90
2018-11-29T03:22:45.414Z,939.84
2018-11-29T03:23:45.391Z,939.83
2018-11-29T03:24:45.382Z,939.78
2018-11-29T03:25:45.379Z,939.78
2018-11-29T03:26:45.355Z,939.77
2018-11-29T03:27:45.360Z,939.76
2018-11-29T03:28:45.355Z,939.79
2018-11-29T03:29:45.321Z,939.82
2018-11-29T03:30:45.310Z,939.78
2018-11-29T03:31:45.306Z,939.74
2018-11-29T03:32:45.308Z,939.72
2018-11-29T03:33:45.279Z,939.73
2018-11-29T03:34:45.264Z,939.74
2018-11-29T03:35:45.257Z,939.76
2018-11-29T03:36:45.247Z,939.76
2018-11-29T03:37:45.255Z,939.79
2018-11-29T03:38:45.229Z,939.76
2018-11-29T03:39:45.211Z,939.77
2018-11-29T03:40:45.199Z,939.74
2018-11-29T03:41:45.191Z,939.68
2018-11-29T03:42:45.201Z,939.72
2018-11-29T03:43:45.168Z,939.68
2018-11-29T03:44:45.159Z,939.69
2018-11-29T03:45:45.147Z,939.72
2018-11-29T03:46:45.137Z,939.69
2018-11-29T03:47:45.178Z,939.68
2018-11-29T03:48:45.115Z,939.64
2018-11-29T03:49:45.102Z,939.63
2018-11-29T03:50:45.090Z,939.64
2018-11-29T03:51:45.095Z,939.65
2018-11-29T03:52:45.082Z,939.59
2018-11-29T03:53:45.059Z,939.58
2018-11-29T03:54:45.057Z,939.59
2018-11-29T03:55:45.039Z,939.58
2018-11-29T03:56:45.023Z,939.58
2018-11-29T03:57:45.070Z,939.58
2018-11-29T03:58:45.005Z,939.57
2018-11-29T03:59:45.012Z,939.56
2018-11-29T04:00:44.982Z,939.54
2018-11-29T04:01:44.968Z,939.51
2018-11-29T04:02:44.976Z,939.46
2018-11-29T04:03:44.958Z,939.42
2018-11-29T04:04:44.944Z,939.40
2018-11-29T04:05:44.925Z,939.37
2018-11-29T04:06:44.915Z,939.39
2018-11-29T04:07:44.934Z,939.33
2018-11-29T04:08:44.897Z,939.34
2018-11-29T04:09:44.884Z,939.29
2018-11-29T04:10:44.891Z,939.27
2018-11-29T04:11:44.864Z,939.28
2018-11-29T04:12:44.864Z,939.30
2018-11-29T04:13:44.844Z,939.26
2018-11-29T04:14:44.839Z,939.24
2018-11-29T04:15:44.815Z,939.27
2018-11-29T04:16:44.821Z,939.21
2018-11-29T04:17:44.820Z,939.21
2018-11-29T04:18:44.783Z,939.22
2018-11-29T04:19:44.784Z,939.17
2018-11-29T04:20:44.767Z,939.16
2018-11-29T04:21:44.758Z,939.13
2018-11-29T04:22:44.757Z,939.12
2018-11-29T04:23:44.732Z,939.16
2018-11-29T04:24:44.725Z,939.19
2018-11-29T04:25:44.711Z,939.20
2018-11-29T04:26:44.700Z,939.17
2018-11-29T04:27:44.736Z,939.15
2018-11-29T04:28:44.678Z,939.19
2018-11-29T04:29:44.662Z,939.15
2018-11-29T04:30:44.666Z,939.21
2018-11-29T04:31:44.639Z,939.22
2018-11-29T04:32:44.642Z,939.17
2018-11-29T04:33:44.640Z,939.20
2018-11-29T04:34:44.618Z,939.13
2018-11-29T04:35:44.605Z,939.19
2018-11-29T04:36:44.586Z,939.24
2018-11-29T04:37:44.584Z,939.20
2018-11-29T04:38:44.584Z,939.20
2018-11-29T04:39:44.553Z,939.16
2018-11-29T04:40:44.549Z,939.14
2018-11-29T04:41:44.540Z,939.14
2018-11-29T04:42:44.519Z,939.11
2018-11-29T04:43:44.525Z,939.13
2018-11-29T04:44:44.497Z,939.11
2018-11-29T04:45:44.486Z,939.15
2018-11-29T04:46:44.479Z,939.17
2018-11-29T04:47:44.482Z,939.16
2018-11-29T04:48:44.469Z,939.16
2018-11-29T04:49:44.453Z,939.13
2018-11-29T04:50:44.437Z,939.13
2018-11-29T04:51:44.425Z,939.11
2018-11-29T04:52:44.409Z,939.04
2018-11-29T04:53:44.441Z,939.07
2018-11-29T04:54:44.389Z,939.09
2018-11-29T04:55:44.387Z,939.01
2018-11-29T04:56:44.380Z,939.04
2018-11-29T04:57:44.357Z,939.05
2018-11-29T04:58:44.367Z,939.05
2018-11-29T04:59:44.337Z,939.11
2018-11-29T05:00:44.326Z,939.08
2018-11-29T05:01:44.327Z,939.08
2018-11-29T05:02:44.310Z,939.13
2018-11-29T05:03:44.321Z,939.12
2018-11-29T05:04:44.277Z,939.13
2018-11-29T05:05:44.269Z,939.11
2018-11-29T05:06:44.255Z,939.14
2018-11-29T05:07:44.246Z,939.08
2018-11-29T05:08:44.258Z,939.07
2018-11-29T05:09:44.224Z,939.01
2018-11-29T05:10:44.213Z,939.01
2018-11-29T05:11:44.202Z,938.99
2018-11-29T05:12:44.193Z,938.99
2018-11-29T05:13:44.358Z,938.98
2018-11-29T05:14:44.181Z,938.98
2018-11-29T05:15:44.159Z,938.98
2018-11-29T05:16:44.145Z,938.97
2018-11-29T05:17:44.138Z,938.97
2018-11-29T05:18:44.154Z,938.91
2018-11-29T05:19:44.128Z,938.97
2018-11-29T05:20:44.107Z,939.02
2018-11-29T05:21:44.128Z,938.97
2018-11-29T05:22:44.080Z,938.94
2018-11-29T05:23:44.076Z,938.89
2018-11-29T05:24:44.082Z,938.86
2018-11-29T05:25:44.052Z,938.86
2018-11-29T05:26:44.035Z,938.78
2018-11-29T05:27:44.030Z,938.79
2018-11-29T05:28:44.022Z,938.74
2018-11-29T05:29:44.019Z,938.73
2018-11-29T05:30:44.012Z,938.71
2018-11-29T05:31:43.981Z,938.68
2018-11-29T05:32:43.968Z,938.71
2018-11-29T05:33:43.967Z,938.70
2018-11-29T05:34:43.963Z,938.67
2018-11-29T05:35:43.941Z,938.64
2018-11-29T05:36:43.988Z,938.64
2018-11-29T05:37:44.018Z,938.66
2018-11-29T05:38:43.903Z,938.61
2018-11-29T05:39:43.968Z,938.61
2018-11-29T05:40:43.883Z,938.54
2018-11-29T05:41:43.883Z,938.57
2018-11-29T05:42:43.915Z,938.54
2018-11-29T05:43:43.856Z,938.53
2018-11-29T05:44:43.852Z,938.54
2018-11-29T05:45:43.844Z,938.50
2018-11-29T05:46:43.822Z,938.51
2018-11-29T05:47:43.822Z,938.49
2018-11-29T05:48:43.810Z,938.50
2018-11-29T05:49:43.802Z,938.52
2018-11-29T05:50:43.800Z,938.48
2018-11-29T05:51:43.771Z,938.55
2018-11-29T05:52:43.753Z,938.57
2018-11-29T05:53:43.785Z,938.56
2018-11-29T05:54:43.734Z,938.59
2018-11-29T05:55:43.732Z,938.62
2018-11-29T05:56:43.710Z,938.63
2018-11-29T05:57:43.693Z,938.62
2018-11-29T05:58:43.686Z,938.65
2018-11-29T05:59:43.677Z,938.62
2018-11-29T06:00:43.675Z,938.62
2018-11-29T06:01:43.649Z,938.61
2018-11-29T06:02:43.644Z,938.56
2018-11-29T06:03:43.698Z,938.54
2018-11-29T06:04:43.617Z,938.53
2018-11-29T06:05:43.628Z,938.49
2018-11-29T06:06:43.593Z,938.50
2018-11-29T06:07:43.611Z,938.52
2018-11-29T06:08:43.572Z,938.53
2018-11-29T06:09:43.561Z,938.55
2018-11-29T06:10:43.564Z,938.55
2018-11-29T06:11:43.537Z,938.59
2018-11-29T06:12:43.537Z,938.58
2018-11-29T06:13:43.565Z,938.53
2018-11-29T06:14:43.515Z,938.59
2018-11-29T06:15:43.522Z,938.59
2018-11-29T06:16:43.501Z,938.57
2018-11-29T06:17:43.478Z,938.58
2018-11-29T06:18:43.465Z,938.57
2018-11-29T06:19:43.460Z,938.56
2018-11-29T06:20:43.498Z,938.60
2018-11-29T06:21:43.457Z,938.59
2018-11-29T06:22:43.456Z,938.65
2018-11-29T06:23:43.406Z,938.65
2018-11-29T06:24:43.395Z,938.67
2018-11-29T06:25:43.420Z,938.66
2018-11-29T06:26:43.385Z,938.65
2018-11-29T06:27:43.369Z,938.65
2018-11-29T06:28:43.379Z,938.65
2018-11-29T06:29:43.347Z,938.61
2018-11-29T06:30:43.344Z,938.60
2018-11-29T06:31:43.325Z,938.51
2018-11-29T06:32:43.356Z,938.49
2018-11-29T06:33:43.298Z,938.42
2018-11-29T06:34:43.300Z,938.39
2018-11-29T06:35:43.295Z,938.37
2018-11-29T06:36:43.298Z,938.35
2018-11-29T06:37:43.282Z,938.38
2018-11-29T06:38:43.281Z,938.38
2018-11-29T06:39:43.263Z,938.37
2018-11-29T06:40:43.225Z,938.41
2018-11-29T06:41:43.226Z,938.43
2018-11-29T06:42:43.203Z,938.45
2018-11-29T06:43:43.197Z,938.44
2018-11-29T06:44:43.177Z,938.45
2018-11-29T06:45:43.184Z,938.41
2018-11-29T06:46:43.176Z,938.40
2018-11-29T06:47:43.162Z,938.38
2018-11-29T06:48:43.136Z,938.41
2018-11-29T06:49:43.133Z,938.42
2018-11-29T06:50:43.114Z,938.48
2018-11-29T06:51:43.117Z,938.49
2018-11-29T06:52:43.096Z,938.49
2018-11-29T06:53:43.089Z,938.45
2018-11-29T06:54:43.082Z,938.44
2018-11-29T06:55:43.067Z,938.40
2018-11-29T06:56:43.064Z,938.36
2018-11-29T06:57:43.037Z,938.36
2018-11-29T06:58:43.023Z,938.36
2018-11-29T06:59:43.011Z,938.34
2018-11-29T07:00:43.018Z,938.44
2018-11-29T07:01:43.003Z,938.37
2018-11-29T07:02:43.003Z,938.37
2018-11-29T07:03:43.383Z,938.38
2018-11-29T07:04:42.953Z,938.34
2018-11-29T07:05:42.948Z,938.36
2018-11-29T07:06:42.947Z,938.32
2018-11-29T07:07:42.932Z,938.34
2018-11-29T07:08:42.922Z,938.32
2018-11-29T07:09:42.898Z,938.32
2018-11-29T07:10:42.899Z,938.31
2018-11-29T07:11:42.917Z,938.32
2018-11-29T07:12:42.867Z,938.30
2018-11-29T07:13:42.858Z,938.29
2018-11-29T07:14:42.851Z,938.27
2018-11-29T07:15:42.855Z,938.30
2018-11-29T07:16:42.842Z,938.29
2018-11-29T07:17:42.811Z,938.27
2018-11-29T07:18:42.844Z,938.28
2018-11-29T07:19:42.792Z,938.29
2018-11-29T07:20:42.786Z,938.28
2018-11-29T07:21:42.786Z,938.26
2018-11-29T07:22:42.780Z,938.25
2018-11-29T07:23:42.923Z,938.22
2018-11-29T07:24:42.771Z,938.26
2018-11-29T07:25:42.722Z,938.23
2018-11-29T07:26:42.725Z,938.19
2018-11-29T07:27:42.706Z,938.21
2018-11-29T07:28:42.689Z,938.18
2018-11-29T07:29:42.684Z,938.14
2018-11-29T07:30:42.669Z,938.16
2018-11-29T07:31:42.691Z,938.11
2018-11-29T07:32:42.665Z,938.09
2018-11-29T07:33:42.639Z,938.10
2018-11-29T07:34:42.659Z,938.12
2018-11-29T07:35:42.611Z,938.08
2018-11-29T07:36:42.599Z,938.11
2018-11-29T07:37:42.604Z,938.10
2018-11-29T07:38:42.581Z,938.08
2018-11-29T07:39:42.593Z,938.05
2018-11-29T07:40:42.556Z,938.07
2018-11-29T07:41:42.551Z,938.07
2018-11-29T07:42:42.548Z,938.05
2018-11-29T07:43:42.523Z,938.06
2018-11-29T07:44:42.518Z,938.03
2018-11-29T07:45:42.502Z,938.06
2018-11-29T07:46:42.498Z,938.02
2018-11-29T07:47:42.508Z,938.00
2018-11-29T07:48:42.473Z,937.95
2018-11-29T07:49:42.470Z,938.00
2018-11-29T07:50:42.459Z,938.00
2018-11-29T07:51:42.436Z,937.98
2018-11-29T07:52:42.440Z,937.96
2018-11-29T07:53:42.428Z,937.99
2018-11-29T07:54:42.408Z,937.97
2018-11-29T07:55:42.397Z,937.98
2018-11-29T07:56:42.389Z,937.96
2018-11-29T07:57:42.394Z,938.03
2018-11-29T07:58:42.361Z,938.01
2018-11-29T07:59:42.416Z,938.01
2018-11-29T08:00:42.351Z,938.03
2018-11-29T08:01:42.326Z,938.01
2018-11-29T08:02:42.347Z,938.01
2018-11-29T08:03:42.308Z,938.01
2018-11-29T08:04:42.323Z,938.02
2018-11-29T08:05:42.294Z,938.01
2018-11-29T08:06:42.273Z,938.00
2018-11-29T08:07:47.333Z,938.01
2018-11-29T08:08:43.274Z,937.99
2018-11-29T08:09:42.236Z,937.99
2018-11-29T08:10:42.230Z,937.99
2018-11-29T08:11:42.249Z,938.03
2018-11-29T08:12:42.236Z,938.08
2018-11-29T08:13:42.193Z,938.07
2018-11-29T08:14:42.183Z,938.05
2018-11-29T08:15:42.176Z,938.03
2018-11-29T08:16:42.175Z,938.02
2018-11-29T08:17:42.172Z,938.03
2018-11-29T08:18:42.161Z,938.01
2018-11-29T08:19:42.127Z,938.01
2018-11-29T08:20:42.117Z,938.02
2018-11-29T08:21:42.114Z,938.05
2018-11-29T08:22:42.115Z,938.04
2018-11-29T08:23:42.089Z,938.02
2018-11-29T08:24:42.072Z,937.96
2018-11-29T08:25:42.066Z,937.94
2018-11-29T08:26:42.070Z,937.96
2018-11-29T08:27:42.072Z,937.96
2018-11-29T08:28:42.046Z,937.92
2018-11-29T08:29:42.028Z,937.96
2018-11-29T08:30:42.025Z,937.88
2018-11-29T08:31:41.999Z,937.87
2018-11-29T08:32:41.999Z,937.91
2018-11-29T08:33:41.990Z,937.88
2018-11-29T08:34:41.982Z,937.88
2018-11-29T08:35:41.952Z,937.85
2018-11-29T08:36:41.940Z,937.85
2018-11-29T08:37:41.982Z,937.86
2018-11-29T08:38:41.926Z,937.88
2018-11-29T08:39:41.908Z,937.87
2018-11-29T08:40:41.902Z,937.87
2018-11-29T08:41:41.890Z,937.89
2018-11-29T08:42:41.885Z,937.86
2018-11-29T08:43:41.888Z,937.82
2018-11-29T08:44:41.854Z,937.84
2018-11-29T08:45:41.842Z,937.85
2018-11-29T08:46:41.833Z,937.79
2018-11-29T08:47:41.829Z,937.79
2018-11-29T08:48:41.832Z,937.76
2018-11-29T08:49:41.804Z,937.80
2018-11-29T08:50:41.789Z,937.75
2018-11-29T08:51:41.778Z,937.82
2018-11-29T08:52:41.765Z,937.84
2018-11-29T08:53:41.773Z,937.83
2018-11-29T08:54:41.742Z,937.82
2018-11-29T08:55:41.744Z,937.83
2018-11-29T08:56:41.722Z,937.81
2018-11-29T08:57:41.720Z,937.80
2018-11-29T08:58:41.714Z,937.70
2018-11-29T08:59:41.689Z,937.70
2018-11-29T09:00:41.679Z,937.64
2018-11-29T09:01:41.676Z,937.65
2018-11-29T09:02:41.662Z,937.62
2018-11-29T09:03:41.675Z,937.65
2018-11-29T09:04:41.640Z,937.70
2018-11-29T09:05:41.640Z,937.69
2018-11-29T09:06:41.613Z,937.72
2018-11-29T09:07:41.600Z,937.74
2018-11-29T09:08:41.632Z,937.76
2018-11-29T09:09:41.581Z,937.77
2018-11-29T09:10:41.571Z,937.77
2018-11-29T09:11:41.557Z,937.73
2018-11-29T09:12:41.548Z,937.71
2018-11-29T09:13:41.558Z,937.76
2018-11-29T09:14:41.534Z,937.78
2018-11-29T09:15:41.519Z,937.75
2018-11-29T09:16:41.507Z,937.74
2018-11-29T09:17:41.495Z,937.79
2018-11-29T09:18:41.500Z,937.76
2018-11-29T09:19:41.469Z,937.78
2018-11-29T09:20:41.470Z,937.76
2018-11-29T09:21:41.456Z,937.78
2018-11-29T09:22:41.438Z,937.75
2018-11-29T09:23:41.448Z,937.76
2018-11-29T09:24:41.421Z,937.75
2018-11-29T09:25:41.411Z,937.67
2018-11-29T09:26:41.401Z,937.72
2018-11-29T09:27:41.385Z,937.66
2018-11-29T09:28:41.388Z,937.69
2018-11-29T09:29:41.361Z,937.65
2018-11-29T09:30:41.364Z,937.68
2018-11-29T09:31:41.339Z,937.62
2018-11-29T09:32:41.332Z,937.67
2018-11-29T09:33:41.345Z,937.66
2018-11-29T09:34:41.306Z,937.65
2018-11-29T09:35:41.296Z,937.65
2018-11-29T09:36:41.283Z,937.67
2018-11-29T09:37:41.278Z,937.66
2018-11-29T09:38:41.313Z,937.60
2018-11-29T09:39:41.260Z,937.62
2018-11-29T09:40:41.239Z,937.62
2018-11-29T09:41:41.229Z,937.62
2018-11-29T09:42:41.222Z,937.61
2018-11-29T09:43:41.208Z,937.59
2018-11-29T09:44:41.227Z,937.61
2018-11-29T09:45:41.187Z,937.63
2018-11-29T09:46:41.177Z,937.60
2018-11-29T09:47:41.162Z,937.58
2018-11-29T09:48:41.154Z,937.58
2018-11-29T09:49:41.158Z,937.60
2018-11-29T09:50:41.136Z,937.60
2018-11-29T09:51:41.122Z,937.57
2018-11-29T09:52:41.113Z,937.61
2018-11-29T09:53:41.097Z,937.59
2018-11-29T09:54:41.104Z,937.58
2018-11-29T09:55:41.078Z,937.58
2018-11-29T09:56:41.075Z,937.62
2018-11-29T09:57:41.053Z,937.59
2018-11-29T09:58:41.053Z,937.57
2018-11-29T09:59:41.048Z,937.55
2018-11-29T10:00:41.046Z,937.57
2018-11-29T10:01:41.012Z,937.56
2018-11-29T10:02:40.999Z,937.58
2018-11-29T10:03:40.989Z,937.56
2018-11-29T10:04:41.001Z,937.60
2018-11-29T10:05:40.967Z,937.57
2018-11-29T10:06:40.960Z,937.57
2018-11-29T10:07:40.959Z,937.54
2018-11-29T10:08:40.935Z,937.49
2018-11-29T10:09:40.960Z,937.47
2018-11-29T10:10:40.925Z,937.48
2018-11-29T10:11:40.912Z,937.45
2018-11-29T10:12:40.890Z,937.45
2018-11-29T10:13:46.162Z,937.46
2018-11-29T10:14:41.886Z,937.50
2018-11-29T10:15:40.861Z,937.46
2018-11-29T10:16:40.857Z,937.51
2018-11-29T10:17:40.843Z,937.53
2018-11-29T10:18:40.873Z,937.48
2018-11-29T10:19:40.834Z,937.47
2018-11-29T10:20:40.803Z,937.45
2018-11-29T10:21:40.798Z,937.42
2018-11-29T10:22:40.788Z,937.41
2018-11-29T10:23:40.776Z,937.35
2018-11-29T10:24:40.784Z,937.35
2018-11-29T10:25:40.753Z,937.28
2018-11-29T10:26:40.749Z,937.33
2018-11-29T10:27:40.729Z,937.29
2018-11-29T10:28:40.718Z,937.29
2018-11-29T10:29:40.729Z,937.23
2018-11-29T10:30:40.696Z,937.28
2018-11-29T10:31:40.698Z,937.23
2018-11-29T10:32:40.686Z,937.26
2018-11-29T10:33:40.677Z,937.31
2018-11-29T10:34:40.666Z,937.30
2018-11-29T10:35:40.640Z,937.35
2018-11-29T10:36:40.648Z,937.39
2018-11-29T10:37:40.619Z,937.40
2018-11-29T10:38:40.608Z,937.43
2018-11-29T10:39:40.613Z,937.44
2018-11-29T10:40:40.592Z,937.43
2018-11-29T10:41:40.588Z,937.39
2018-11-29T10:42:40.570Z,937.36
2018-11-29T10:43:40.579Z,937.31
2018-11-29T10:44:40.559Z,937.28
2018-11-29T10:45:40.533Z,937.25
2018-11-29T10:46:40.521Z,937.30
2018-11-29T10:47:40.537Z,937.25
2018-11-29T10:48:40.544Z,937.22
2018-11-29T10:49:40.511Z,937.19
2018-11-29T10:50:40.499Z,937.18
2018-11-29T10:51:40.481Z,937.10
2018-11-29T10:52:40.460Z,937.10
2018-11-29T10:53:40.470Z,937.10
2018-11-29T10:54:40.453Z,937.07
2018-11-29T10:55:40.425Z,937.08
2018-11-29T10:56:40.426Z,937.05
2018-11-29T10:57:40.404Z,937.07
2018-11-29T10:58:40.409Z,937.09
2018-11-29T10:59:40.414Z,937.10
2018-11-29T11:00:40.379Z,937.09
2018-11-29T11:01:40.369Z,937.07
2018-11-29T11:02:40.351Z,936.97
2018-11-29T11:03:40.342Z,936.90
2018-11-29T11:04:40.347Z,936.83
2018-11-29T11:05:40.320Z,936.80
2018-11-29T11:06:40.318Z,936.75
2018-11-29T11:07:40.307Z,936.62
2018-11-29T11:08:40.288Z,936.63
2018-11-29T11:09:40.298Z,936.61
2018-11-29T11:10:40.275Z,936.62
2018-11-29T11:11:40.255Z,936.60
2018-11-29T11:12:40.259Z,936.61
2018-11-29T11:13:40.235Z,936.59
2018-11-29T11:14:40.243Z,936.55
2018-11-29T11:15:40.214Z,936.50
2018-11-29T11:16:40.203Z,936.54
2018-11-29T11:17:40.246Z,936.50
2018-11-29T11:18:40.209Z,936.52
2018-11-29T11:19:40.184Z,936.48
2018-11-29T11:20:40.163Z,936.48
2018-11-29T11:21:40.150Z,936.47
2018-11-29T11:22:40.146Z,936.48
2018-11-29T11:23:40.128Z,936.46
2018-11-29T11:24:40.133Z,936.49
2018-11-29T11:25:40.139Z,936.44
2018-11-29T11:26:40.095Z,936.48
2018-11-29T11:27:40.084Z,936.51
2018-11-29T11:28:40.075Z,936.47
2018-11-29T11:29:40.085Z,936.50
2018-11-29T11:30:40.089Z,936.49
2018-11-29T11:31:40.049Z,936.51
2018-11-29T11:32:40.025Z,936.47
2018-11-29T11:33:40.027Z,936.52
2018-11-29T11:34:40.022Z,936.53
2018-11-29T11:35:39.996Z,936.50
2018-11-29T11:36:40.007Z,936.49
2018-11-29T11:37:40.016Z,936.48
2018-11-29T11:38:39.961Z,936.48
2018-11-29T11:39:39.962Z,936.43
2018-11-29T11:40:39.936Z,936.46
2018-11-29T11:41:39.935Z,936.39
2018-11-29T11:42:39.947Z,936.48
2018-11-29T11:43:39.909Z,936.50
2018-11-29T11:44:39.927Z,936.46
2018-11-29T11:45:39.907Z,936.47
2018-11-29T11:46:39.877Z,936.50
2018-11-29T11:47:39.863Z,936.49
2018-11-29T11:48:39.879Z,936.45
2018-11-29T11:49:39.857Z,936.44
2018-11-29T11:50:39.832Z,936.46
2018-11-29T11:51:39.819Z,936.41
2018-11-29T11:52:39.806Z,936.45
2018-11-29T11:53:39.794Z,936.43
2018-11-29T11:54:39.800Z,936.42
2018-11-29T11:55:39.772Z,936.39
2018-11-29T11:56:39.770Z,936.37
2018-11-29T11:57:39.812Z,936.35
2018-11-29T11:58:39.742Z,936.31
2018-11-29T11:59:39.744Z,936.32
2018-11-29T12:00:39.787Z,936.32
2018-11-29T12:01:39.712Z,936.27
2018-11-29T12:02:39.706Z,936.34
2018-11-29T12:03:39.738Z,936.23
2018-11-29T12:04:39.704Z,936.24
2018-11-29T12:05:39.663Z,936.23
2018-11-29T12:06:39.669Z,936.19
2018-11-29T12:07:39.652Z,936.21
2018-11-29T12:08:39.634Z,936.19
2018-11-29T12:09:39.635Z,936.18
2018-11-29T12:10:39.609Z,936.18
2018-11-29T12:11:39.606Z,936.19
2018-11-29T12:12:39.588Z,936.14
2018-11-29T12:13:39.577Z,936.11
2018-11-29T12:14:39.582Z,936.09
2018-11-29T12:15:39.557Z,936.08
2018-11-29T12:16:39.563Z,936.09
2018-11-29T12:17:39.540Z,936.08
2018-11-29T12:18:39.529Z,936.10
2018-11-29T12:19:41.041Z,936.13
2018-11-29T12:20:39.507Z,936.11
2018-11-29T12:21:39.491Z,936.17
2018-11-29T12:22:39.495Z,936.18
2018-11-29T12:23:39.468Z,936.17
2018-11-29T12:24:39.465Z,936.18
2018-11-29T12:25:39.466Z,936.14
2018-11-29T12:26:39.433Z,936.15
2018-11-29T12:27:39.424Z,936.10
2018-11-29T12:28:39.425Z,936.12